Terminal Aerodrome Forecast
Issued by NWS

Home | Current Version | Previous Version | Text Only | Print | Product List | Glossary On
Versions: 1 2 3 4 5 6 7 8 9 10 11 12 13 14 15
000
FTUS42 KILM 302300
TAFCRE
TAF
KCRE 302321Z 3100/3124 17005KT P6SM FEW020
     FM310900 VRB03KT P6SM VCSH SCT010 BKN020
     FM311500 18009KT P6SM FEW020 SCT035=

USA.gov is the U.S. government's official web portal to all federal, state and local government web resources and services.